Time;durP1;ratioP1;P1;durP2;ratioP2;P2;SDS_P1;SDS_P2;PMS_P1;PMS_P2;Temp;Humidity;BMP_temperature;BMP_pressure;BME280_temperature;BME280_humidity;BME280_pressure;Samples;Min_cycle;Max_cycle;Signal;HPM_P1;HPM_P2
2023/12/09 00:00:53;;;;;;;2.00;1.27;;;;;;;;;;5018555;28;20119;-81
2023/12/09 00:03:20;;;;;;;11.02;6.90;;;;;;;;;;5029477;28;20124;-81
2023/12/09 00:05:48;;;;;;;2.00;1.90;;;;;;;;;;5029061;28;20462;-81
2023/12/09 00:08:16;;;;;;;1.17;1.08;;;;;;;;;;5027789;28;20108;-81
2023/12/09 00:10:43;;;;;;;0.10;0.10;;;;;;;;;;5011360;28;20099;-81
2023/12/09 00:13:10;;;;;;;4.57;0.93;;;;;;;;;;5030546;28;20068;-82
2023/12/09 00:15:38;;;;;;;1.38;0.75;;;;;;;;;;5028681;28;20053;-81
2023/12/09 00:18:05;;;;;;;0.50;0.50;;;;;;;;;;5031013;28;20046;-81
2023/12/09 00:20:33;;;;;;;0.43;0.43;;;;;;;;;;5029245;28;20049;-81
2023/12/09 00:23:00;;;;;;;1.27;0.90;;;;;;;;;;5015061;28;20047;-81
2023/12/09 00:25:28;;;;;;;0.47;0.47;;;;;;;;;;5026503;28;20107;-81
2023/12/09 00:27:55;;;;;;;0.30;0.30;;;;;;;;;;5026695;28;20154;-81
2023/12/09 00:30:23;;;;;;;0.10;0.10;;;;;;;;;;5011568;28;20053;-81
2023/12/09 00:32:50;;;;;;;0.10;0.10;;;;;;;;;;5026951;28;20049;-81
2023/12/09 00:35:18;;;;;;;0.20;0.20;;;;;;;;;;5025375;28;20132;-81
2023/12/09 00:37:45;;;;;;;0.20;0.20;;;;;;;;;;5006164;28;20049;-81
2023/12/09 00:40:13;;;;;;;0.98;0.45;;;;;;;;;;5016399;28;20099;-81
2023/12/09 00:42:40;;;;;;;0.20;0.20;;;;;;;;;;5025788;28;20049;-81
2023/12/09 00:45:08;;;;;;;21.92;7.13;;;;;;;;;;5028957;28;20046;-81
2023/12/09 00:47:35;;;;;;;0.10;0.10;;;;;;;;;;5029703;28;20064;-81
2023/12/09 00:50:03;;;;;;;1.60;0.82;;;;;;;;;;5027044;28;20142;-81
2023/12/09 00:52:30;;;;;;;0.30;0.30;;;;;;;;;;5037595;28;20033;-81
2023/12/09 00:54:58;;;;;;;0.10;0.10;;;;;;;;;;5036610;28;20455;-81
2023/12/09 00:57:25;;;;;;;1.45;1.35;;;;;;;;;;5017813;28;20042;-81
2023/12/09 00:59:53;;;;;;;0.10;0.10;;;;;;;;;;5009364;28;20509;-81
2023/12/09 01:02:21;;;;;;;0.65;0.65;;;;;;;;;;5031291;28;20373;-81
2023/12/09 01:04:48;;;;;;;0.08;0.08;;;;;;;;;;5031525;28;20053;-82
2023/12/09 01:07:16;;;;;;;0.00;0.00;;;;;;;;;;5027162;28;20054;-81
2023/12/09 01:09:43;;;;;;;0.60;0.60;;;;;;;;;;5012842;28;20458;-81
2023/12/09 01:12:10;;;;;;;0.22;0.22;;;;;;;;;;5028507;28;20076;-81
2023/12/09 01:14:38;;;;;;;0.10;0.10;;;;;;;;;;5012599;28;20045;-81
2023/12/09 01:17:06;;;;;;;0.10;0.10;;;;;;;;;;5029517;28;20049;-81
2023/12/09 01:19:33;;;;;;;0.00;0.00;;;;;;;;;;5028578;28;20048;-81
2023/12/09 01:22:01;;;;;;;0.52;0.52;;;;;;;;;;5031035;28;20116;-81
2023/12/09 01:24:28;;;;;;;2.50;2.40;;;;;;;;;;5027775;28;20123;-81
2023/12/09 01:26:56;;;;;;;0.40;0.32;;;;;;;;;;5012056;28;20053;-81
2023/12/09 01:29:24;;;;;;;0.10;0.10;;;;;;;;;;5028861;28;20574;-81
2023/12/09 01:31:51;;;;;;;3.22;1.63;;;;;;;;;;5012782;28;20060;-81
2023/12/09 01:34:18;;;;;;;2.47;1.13;;;;;;;;;;5006655;28;20691;-81
2023/12/09 01:36:46;;;;;;;0.93;0.93;;;;;;;;;;5025526;28;20060;-82
2023/12/09 01:39:14;;;;;;;0.10;0.10;;;;;;;;;;5000791;28;20069;-82
2023/12/09 01:41:43;;;;;;;0.15;0.15;;;;;;;;;;5019757;28;20136;-82
2023/12/09 01:44:10;;;;;;;0.10;0.10;;;;;;;;;;4999437;28;20046;-82
2023/12/09 01:46:38;;;;;;;0.10;0.10;;;;;;;;;;5014060;28;20042;-81
2023/12/09 01:49:06;;;;;;;0.00;0.00;;;;;;;;;;5001029;28;20080;-79
2023/12/09 01:51:38;;;;;;;7.07;2.95;;;;;;;;;;5011324;28;20069;-81
2023/12/09 01:54:08;;;;;;;1.42;1.33;;;;;;;;;;5013854;28;20052;-81
2023/12/09 01:56:36;;;;;;;2.78;2.13;;;;;;;;;;4999592;28;20168;-82
2023/12/09 01:59:03;;;;;;;1.45;1.35;;;;;;;;;;5019481;28;20045;-82
2023/12/09 02:01:32;;;;;;;0.10;0.10;;;;;;;;;;5001590;28;20404;-81
2023/12/09 02:03:59;;;;;;;0.10;0.10;;;;;;;;;;5019034;28;20042;-82
2023/12/09 02:06:27;;;;;;;0.75;0.75;;;;;;;;;;5004987;28;20565;-82
2023/12/09 02:08:55;;;;;;;0.10;0.10;;;;;;;;;;5016532;28;20046;-82
2023/12/09 02:11:39;;;;;;;0.10;0.10;;;;;;;;;;5019698;28;20041;-83
2023/12/09 02:14:33;;;;;;;5.57;1.63;;;;;;;;;;5020416;28;20455;-82
2023/12/09 02:17:19;;;;;;;0.20;0.20;;;;;;;;;;5000861;28;20137;-82
2023/12/09 02:19:49;;;;;;;0.70;0.68;;;;;;;;;;5032441;28;20049;-82
2023/12/09 02:22:17;;;;;;;1.65;0.80;;;;;;;;;;5034630;28;20072;-82
2023/12/09 02:24:44;;;;;;;2.17;2.00;;;;;;;;;;5021251;28;20053;-82
2023/12/09 02:27:19;;;;;;;0.10;0.10;;;;;;;;;;5015957;28;20132;-83
2023/12/09 02:29:53;;;;;;;0.63;0.63;;;;;;;;;;5001442;28;20037;-83
2023/12/09 02:32:21;;;;;;;0.10;0.10;;;;;;;;;;5001972;28;20038;-80
2023/12/09 02:34:50;;;;;;;1.38;1.27;;;;;;;;;;5014284;28;20061;-80
2023/12/09 02:37:20;;;;;;;0.13;0.13;;;;;;;;;;5002599;28;20048;-81
2023/12/09 02:39:48;;;;;;;0.40;0.40;;;;;;;;;;5013949;28;20057;-81
2023/12/09 02:42:16;;;;;;;0.25;0.25;;;;;;;;;;5003165;28;20122;-81
2023/12/09 02:44:44;;;;;;;2.83;1.42;;;;;;;;;;5019395;28;20435;-80
2023/12/09 02:47:12;;;;;;;6.82;4.78;;;;;;;;;;5010221;28;20210;-80
2023/12/09 02:49:41;;;;;;;0.90;0.73;;;;;;;;;;5008958;28;20053;-81
2023/12/09 02:52:08;;;;;;;0.15;0.15;;;;;;;;;;5025658;28;20060;-81
2023/12/09 02:54:36;;;;;;;0.30;0.20;;;;;;;;;;5029937;28;20042;-82
2023/12/09 02:57:04;;;;;;;0.10;0.10;;;;;;;;;;5002003;28;20053;-81
2023/12/09 02:59:31;;;;;;;0.10;0.10;;;;;;;;;;5015961;28;20058;-81
2023/12/09 03:01:59;;;;;;;0.17;0.17;;;;;;;;;;5015992;28;20174;-82
2023/12/09 03:04:28;;;;;;;0.10;0.10;;;;;;;;;;5016896;28;20120;-82
2023/12/09 03:06:55;;;;;;;0.10;0.10;;;;;;;;;;5003668;28;20048;-82
2023/12/09 03:09:23;;;;;;;0.05;0.05;;;;;;;;;;5001672;28;20119;-82
2023/12/09 03:11:50;;;;;;;0.77;0.77;;;;;;;;;;4996433;28;21037;-81
2023/12/09 03:14:18;;;;;;;0.10;0.10;;;;;;;;;;5018078;28;20064;-82
2023/12/09 03:16:45;;;;;;;0.05;0.05;;;;;;;;;;5013181;28;20198;-82
2023/12/09 03:19:13;;;;;;;0.10;0.10;;;;;;;;;;5034969;28;20573;-81
2023/12/09 03:21:40;;;;;;;0.10;0.10;;;;;;;;;;5017539;28;20037;-81
2023/12/09 03:24:08;;;;;;;0.00;0.00;;;;;;;;;;5025966;28;20235;-82
2023/12/09 03:29:31;;;;;;;0.17;0.17;;;;;;;;;;5005292;28;20059;-82
2023/12/09 03:31:59;;;;;;;0.40;0.40;;;;;;;;;;5003443;28;20083;-81
2023/12/09 03:34:26;;;;;;;0.10;0.10;;;;;;;;;;4989453;28;20052;-81
2023/12/09 03:36:54;;;;;;;0.00;0.00;;;;;;;;;;5020763;28;20048;-82
2023/12/09 03:39:21;;;;;;;0.20;0.20;;;;;;;;;;5019959;28;20099;-82
2023/12/09 03:41:49;;;;;;;0.10;0.10;;;;;;;;;;5015987;28;20175;-81
2023/12/09 03:44:16;;;;;;;0.10;0.10;;;;;;;;;;5018205;28;20100;-81
2023/12/09 03:46:44;;;;;;;0.20;0.20;;;;;;;;;;5021606;28;20213;-81
2023/12/09 03:49:11;;;;;;;0.65;0.65;;;;;;;;;;5025174;28;20042;-82
2023/12/09 03:51:39;;;;;;;0.13;0.13;;;;;;;;;;5009630;28;20041;-82
2023/12/09 03:54:06;;;;;;;0.10;0.10;;;;;;;;;;4999097;28;20047;-81
2023/12/09 03:56:33;;;;;;;1.85;0.55;;;;;;;;;;5018712;28;20050;-82
2023/12/09 03:59:01;;;;;;;0.10;0.10;;;;;;;;;;5000336;28;20056;-81
2023/12/09 04:01:29;;;;;;;0.80;0.80;;;;;;;;;;5020860;28;20053;-81
2023/12/09 04:03:57;;;;;;;0.52;0.52;;;;;;;;;;5012092;28;20055;-82
2023/12/09 04:06:24;;;;;;;0.10;0.10;;;;;;;;;;4998699;28;20348;-82
2023/12/09 04:08:52;;;;;;;0.57;0.57;;;;;;;;;;5011489;28;20043;-82
2023/12/09 04:11:19;;;;;;;0.52;0.52;;;;;;;;;;5022439;28;20045;-82
2023/12/09 04:13:47;;;;;;;0.73;0.73;;;;;;;;;;5031038;28;20048;-81
2023/12/09 04:16:14;;;;;;;0.10;0.10;;;;;;;;;;5023786;28;20513;-82
2023/12/09 04:18:42;;;;;;;0.32;0.32;;;;;;;;;;5029687;28;20081;-82
2023/12/09 04:21:10;;;;;;;0.10;0.10;;;;;;;;;;5028767;28;20046;-82
2023/12/09 04:23:37;;;;;;;2.47;0.82;;;;;;;;;;5021799;28;20057;-82
2023/12/09 04:26:05;;;;;;;0.10;0.10;;;;;;;;;;5011584;28;20049;-81
2023/12/09 04:28:32;;;;;;;0.30;0.30;;;;;;;;;;5024517;28;20100;-82
2023/12/09 04:31:00;;;;;;;0.43;0.38;;;;;;;;;;5011403;28;20519;-82
2023/12/09 04:33:28;;;;;;;0.43;0.43;;;;;;;;;;5036144;28;20041;-82
2023/12/09 04:35:55;;;;;;;0.45;0.45;;;;;;;;;;5010061;28;20477;-81
2023/12/09 04:38:23;;;;;;;0.10;0.10;;;;;;;;;;5017494;28;20049;-81
2023/12/09 04:40:51;;;;;;;0.15;0.15;;;;;;;;;;5006467;28;20514;-82
2023/12/09 04:43:18;;;;;;;0.10;0.10;;;;;;;;;;4999360;28;20061;-81
2023/12/09 04:45:46;;;;;;;0.43;0.43;;;;;;;;;;5000630;28;20053;-82
2023/12/09 04:48:13;;;;;;;0.10;0.10;;;;;;;;;;5014172;28;20407;-81
2023/12/09 04:50:41;;;;;;;0.10;0.10;;;;;;;;;;5028601;28;20041;-82
2023/12/09 04:53:14;;;;;;;0.20;0.20;;;;;;;;;;5030926;28;20092;-81
2023/12/09 04:55:41;;;;;;;0.10;0.10;;;;;;;;;;5031017;28;20049;-82
2023/12/09 04:58:09;;;;;;;0.10;0.10;;;;;;;;;;5028871;28;20060;-81
2023/12/09 05:00:36;;;;;;;0.30;0.30;;;;;;;;;;5024325;28;20096;-81
2023/12/09 05:03:04;;;;;;;0.40;0.30;;;;;;;;;;5029965;28;20068;-81
2023/12/09 05:05:31;;;;;;;0.10;0.10;;;;;;;;;;5027518;28;20419;-81
2023/12/09 05:07:59;;;;;;;0.10;0.10;;;;;;;;;;5024430;28;20061;-81
2023/12/09 05:13:21;;;;;;;0.17;0.10;;;;;;;;;;5011869;28;20053;-70
2023/12/09 05:15:49;;;;;;;0.10;0.10;;;;;;;;;;5013367;28;20054;-71
2023/12/09 05:18:16;;;;;;;1.30;1.25;;;;;;;;;;5013700;28;20053;-71
2023/12/09 05:20:45;;;;;;;0.55;0.55;;;;;;;;;;5013422;28;20443;-71
2023/12/09 05:23:12;;;;;;;0.10;0.10;;;;;;;;;;5012084;28;20064;-71
2023/12/09 05:25:39;;;;;;;0.10;0.10;;;;;;;;;;5013454;28;20499;-71
2023/12/09 05:28:07;;;;;;;0.20;0.20;;;;;;;;;;5013751;28;20060;-72
2023/12/09 05:30:35;;;;;;;0.10;0.10;;;;;;;;;;5013049;28;20084;-71
2023/12/09 05:33:03;;;;;;;2.55;2.35;;;;;;;;;;5013128;28;20042;-71
2023/12/09 05:35:31;;;;;;;1.17;1.17;;;;;;;;;;5013057;28;20056;-71
2023/12/09 05:37:58;;;;;;;0.30;0.30;;;;;;;;;;4995154;28;20112;-72
2023/12/09 05:40:25;;;;;;;0.45;0.45;;;;;;;;;;4995547;28;20056;-71
2023/12/09 05:42:53;;;;;;;0.20;0.20;;;;;;;;;;5012352;28;20050;-71
2023/12/09 05:45:21;;;;;;;0.50;0.47;;;;;;;;;;5013011;28;20046;-71
2023/12/09 05:47:48;;;;;;;1.00;1.00;;;;;;;;;;5012350;28;20141;-72
2023/12/09 05:50:15;;;;;;;0.35;0.30;;;;;;;;;;5012148;28;20052;-71
2023/12/09 05:52:43;;;;;;;0.20;0.20;;;;;;;;;;5011665;28;20041;-72
2023/12/09 05:55:14;;;;;;;0.80;0.65;;;;;;;;;;5012105;28;20293;-71
2023/12/09 05:57:42;;;;;;;1.00;0.95;;;;;;;;;;5012057;28;20049;-72
2023/12/09 06:00:10;;;;;;;0.68;0.57;;;;;;;;;;5011894;28;20050;-71
2023/12/09 06:02:40;;;;;;;3.70;0.73;;;;;;;;;;5011835;28;20056;-71
2023/12/09 06:05:08;;;;;;;2.95;1.38;;;;;;;;;;5009616;28;20286;-72
2023/12/09 06:07:35;;;;;;;1.42;1.40;;;;;;;;;;5011845;28;20046;-72
2023/12/09 06:10:05;;;;;;;0.10;0.10;;;;;;;;;;5004705;28;20514;-72
2023/12/09 06:12:32;;;;;;;0.60;0.45;;;;;;;;;;5006659;28;20503;-71
2023/12/09 06:15:00;;;;;;;0.10;0.10;;;;;;;;;;5011220;28;20066;-72
2023/12/09 06:17:28;;;;;;;0.32;0.32;;;;;;;;;;5011310;28;20054;-72
2023/12/09 06:19:55;;;;;;;3.50;1.65;;;;;;;;;;5011844;28;20107;-72
2023/12/09 06:22:23;;;;;;;0.20;0.20;;;;;;;;;;5011587;28;20050;-72
2023/12/09 06:24:51;;;;;;;0.20;0.20;;;;;;;;;;5011444;28;20439;-73
2023/12/09 06:27:18;;;;;;;0.30;0.30;;;;;;;;;;5011258;28;20050;-72
2023/12/09 06:29:46;;;;;;;1.30;1.25;;;;;;;;;;5010610;28;20153;-72
2023/12/09 06:32:14;;;;;;;0.20;0.20;;;;;;;;;;5008713;28;20060;-72
2023/12/09 06:34:41;;;;;;;0.43;0.43;;;;;;;;;;5009838;28;20095;-71
2023/12/09 06:37:09;;;;;;;0.00;0.00;;;;;;;;;;4983770;28;20050;-72
2023/12/09 06:39:36;;;;;;;0.10;0.10;;;;;;;;;;5011578;28;20092;-72
2023/12/09 06:42:05;;;;;;;0.40;0.40;;;;;;;;;;5008951;28;20057;-71
2023/12/09 06:44:33;;;;;;;0.10;0.10;;;;;;;;;;5010332;28;20451;-72
2023/12/09 06:47:01;;;;;;;0.10;0.10;;;;;;;;;;5009485;28;20062;-72
2023/12/09 06:49:28;;;;;;;1.13;1.10;;;;;;;;;;5010053;28;20088;-71
2023/12/09 06:51:56;;;;;;;1.13;0.75;;;;;;;;;;5005131;28;20049;-72
2023/12/09 06:54:23;;;;;;;0.38;0.38;;;;;;;;;;5010468;28;20049;-71
2023/12/09 06:56:52;;;;;;;0.10;0.10;;;;;;;;;;5007191;28;20685;-72
2023/12/09 06:59:19;;;;;;;1.10;0.45;;;;;;;;;;5010673;28;20557;-71
2023/12/09 07:01:49;;;;;;;0.60;0.60;;;;;;;;;;5007538;28;20064;-72
2023/12/09 07:04:17;;;;;;;0.10;0.10;;;;;;;;;;5005439;28;20056;-71
2023/12/09 07:06:44;;;;;;;0.52;0.40;;;;;;;;;;5009877;28;20061;-71
2023/12/09 07:09:12;;;;;;;0.43;0.43;;;;;;;;;;4991717;28;20044;-72
2023/12/09 07:11:40;;;;;;;0.10;0.10;;;;;;;;;;5009165;28;20049;-72
2023/12/09 07:14:07;;;;;;;1.02;1.02;;;;;;;;;;5008850;28;20149;-72
2023/12/09 07:16:37;;;;;;;0.20;0.20;;;;;;;;;;5009962;28;20447;-71
2023/12/09 07:19:06;;;;;;;1.02;1.00;;;;;;;;;;5009794;28;20073;-72
2023/12/09 07:21:34;;;;;;;0.40;0.40;;;;;;;;;;4970633;28;20133;-72
2023/12/09 07:24:03;;;;;;;1.02;0.75;;;;;;;;;;4985302;28;20045;-71
2023/12/09 07:26:33;;;;;;;0.20;0.20;;;;;;;;;;5005284;28;20050;-71
2023/12/09 07:29:05;;;;;;;3.40;0.82;;;;;;;;;;4998957;28;20049;-71
2023/12/09 07:31:33;;;;;;;0.45;0.45;;;;;;;;;;5011981;28;20514;-71
2023/12/09 07:34:01;;;;;;;3.53;1.45;;;;;;;;;;5008741;28;20120;-71
2023/12/09 07:36:29;;;;;;;0.82;0.82;;;;;;;;;;4992861;28;20190;-71
2023/12/09 07:38:56;;;;;;;0.28;0.28;;;;;;;;;;5015973;28;20056;-72
2023/12/09 07:41:24;;;;;;;0.75;0.75;;;;;;;;;;5006736;28;20104;-71
2023/12/09 07:43:51;;;;;;;1.75;0.82;;;;;;;;;;5000283;28;20231;-72
2023/12/09 07:46:19;;;;;;;2.67;2.53;;;;;;;;;;5002550;28;20050;-71
2023/12/09 07:48:47;;;;;;;1.83;1.73;;;;;;;;;;5007040;28;20049;-72
2023/12/09 07:51:15;;;;;;;0.10;0.10;;;;;;;;;;5006081;28;20049;-71
2023/12/09 07:53:42;;;;;;;0.90;0.90;;;;;;;;;;5008685;28;20053;-72
2023/12/09 07:56:09;;;;;;;0.10;0.10;;;;;;;;;;4991587;28;20104;-71
2023/12/09 07:58:37;;;;;;;0.68;0.68;;;;;;;;;;5008902;28;20053;-71
2023/12/09 08:01:05;;;;;;;0.75;0.75;;;;;;;;;;4989899;28;20053;-72
2023/12/09 08:03:37;;;;;;;6.18;4.03;;;;;;;;;;5008002;28;20073;-74
2023/12/09 08:06:06;;;;;;;0.60;0.60;;;;;;;;;;5007938;28;20058;-72
2023/12/09 08:08:35;;;;;;;2.60;1.80;;;;;;;;;;4998174;28;20042;-71
2023/12/09 08:11:03;;;;;;;0.60;0.60;;;;;;;;;;5006177;28;20414;-72
2023/12/09 08:13:30;;;;;;;1.20;1.15;;;;;;;;;;5007076;28;20542;-72
2023/12/09 08:15:58;;;;;;;1.08;0.93;;;;;;;;;;5004572;28;20061;-72
2023/12/09 08:18:25;;;;;;;2.83;1.67;;;;;;;;;;5008683;28;20156;-72
2023/12/09 08:20:54;;;;;;;9.02;3.97;;;;;;;;;;5005265;28;20324;-72
2023/12/09 08:23:22;;;;;;;3.25;2.95;;;;;;;;;;5007808;28;20050;-72
2023/12/09 08:25:49;;;;;;;1.65;1.65;;;;;;;;;;5006925;28;20051;-72
2023/12/09 08:28:17;;;;;;;2.58;2.38;;;;;;;;;;5009821;28;20384;-72
2023/12/09 08:30:46;;;;;;;2.63;2.42;;;;;;;;;;5008759;28;20454;-72
2023/12/09 08:33:14;;;;;;;1.27;1.27;;;;;;;;;;4996914;28;20060;-72
2023/12/09 08:35:42;;;;;;;4.25;2.05;;;;;;;;;;5008324;28;20147;-71
2023/12/09 08:38:09;;;;;;;1.40;1.40;;;;;;;;;;5008431;28;20053;-71
2023/12/09 08:40:37;;;;;;;5.80;2.50;;;;;;;;;;5009079;28;20081;-71
2023/12/09 08:43:04;;;;;;;4.97;2.50;;;;;;;;;;5006951;28;20053;-71
2023/12/09 08:45:32;;;;;;;8.60;5.65;;;;;;;;;;5000472;28;20101;-72
2023/12/09 08:47:59;;;;;;;4.63;4.20;;;;;;;;;;5009179;28;20535;-72
2023/12/09 08:50:27;;;;;;;4.07;3.13;;;;;;;;;;5004226;28;20054;-72
2023/12/09 08:52:55;;;;;;;7.20;5.65;;;;;;;;;;5008105;28;20123;-71
2023/12/09 08:55:22;;;;;;;5.28;4.45;;;;;;;;;;5009153;28;20077;-72
2023/12/09 08:57:51;;;;;;;3.08;2.53;;;;;;;;;;5011133;28;20072;-72
2023/12/09 09:00:20;;;;;;;0.30;0.30;;;;;;;;;;5013182;28;20049;-72
2023/12/09 09:02:49;;;;;;;0.90;0.90;;;;;;;;;;5012313;28;20550;-72
2023/12/09 09:05:16;;;;;;;4.05;2.70;;;;;;;;;;5008843;28;20403;-72
2023/12/09 09:07:44;;;;;;;0.65;0.65;;;;;;;;;;5011512;28;20132;-73
2023/12/09 09:10:12;;;;;;;0.50;0.50;;;;;;;;;;5009476;28;20092;-72
2023/12/09 09:12:39;;;;;;;1.63;1.55;;;;;;;;;;5007484;28;20049;-73
2023/12/09 09:15:07;;;;;;;2.28;2.17;;;;;;;;;;4992184;28;20137;-73
2023/12/09 09:17:36;;;;;;;4.75;4.30;;;;;;;;;;5010268;28;20049;-73
2023/12/09 09:20:04;;;;;;;5.03;2.90;;;;;;;;;;4989656;28;20129;-73
2023/12/09 09:22:33;;;;;;;1.23;1.13;;;;;;;;;;5011698;28;20060;-72
2023/12/09 09:25:01;;;;;;;0.75;0.75;;;;;;;;;;5009140;28;20058;-73
2023/12/09 09:27:29;;;;;;;0.88;0.88;;;;;;;;;;5007290;28;20050;-73
2023/12/09 09:29:57;;;;;;;1.05;0.85;;;;;;;;;;5013055;28;20065;-73
2023/12/09 09:32:25;;;;;;;2.75;2.50;;;;;;;;;;5011797;28;20038;-73
2023/12/09 09:34:53;;;;;;;0.20;0.20;;;;;;;;;;5011310;28;20038;-73
2023/12/09 09:37:20;;;;;;;1.27;1.17;;;;;;;;;;5016654;28;20060;-73
2023/12/09 09:39:49;;;;;;;11.10;8.23;;;;;;;;;;5010999;28;20113;-72
2023/12/09 09:42:30;;;;;;;1.55;1.52;;;;;;;;;;5013766;28;20052;-72
2023/12/09 09:45:21;;;;;;;1.73;1.08;;;;;;;;;;5008836;28;20041;-73
2023/12/09 09:47:54;;;;;;;1.55;1.42;;;;;;;;;;5004050;28;20119;-73
2023/12/09 09:50:23;;;;;;;1.25;1.17;;;;;;;;;;5008971;28;20030;-73
2023/12/09 09:52:52;;;;;;;0.52;0.52;;;;;;;;;;4999194;28;20050;-73
2023/12/09 09:55:21;;;;;;;0.10;0.10;;;;;;;;;;5010788;28;20108;-72
2023/12/09 09:57:49;;;;;;;1.70;1.60;;;;;;;;;;5008805;28;20046;-73
2023/12/09 10:00:19;;;;;;;1.58;1.40;;;;;;;;;;5008295;28;20065;-72
2023/12/09 10:02:48;;;;;;;0.57;0.57;;;;;;;;;;5010976;28;20483;-72
2023/12/09 10:05:17;;;;;;;4.45;1.42;;;;;;;;;;5006453;28;20471;-72
2023/12/09 10:07:45;;;;;;;2.28;0.63;;;;;;;;;;5010867;28;20046;-73
2023/12/09 10:10:13;;;;;;;1.85;1.75;;;;;;;;;;5008030;28;20069;-72
2023/12/09 10:12:42;;;;;;;5.00;4.32;;;;;;;;;;5003977;28;20423;-72
2023/12/09 10:15:11;;;;;;;2.25;2.15;;;;;;;;;;5006668;28;20053;-72
2023/12/09 10:17:38;;;;;;;0.75;0.45;;;;;;;;;;5008433;28;20045;-72
2023/12/09 10:20:08;;;;;;;0.95;0.95;;;;;;;;;;5007574;28;20129;-72
2023/12/09 10:22:36;;;;;;;1.60;1.50;;;;;;;;;;4993622;28;20046;-72
2023/12/09 10:25:04;;;;;;;5.35;1.42;;;;;;;;;;5010628;28;20046;-72
2023/12/09 10:27:33;;;;;;;0.50;0.50;;;;;;;;;;5011192;28;20107;-72
2023/12/09 10:30:01;;;;;;;0.77;0.77;;;;;;;;;;5008235;28;20070;-72
2023/12/09 10:32:29;;;;;;;1.20;1.20;;;;;;;;;;5011549;28;20504;-72
2023/12/09 10:34:57;;;;;;;1.48;1.38;;;;;;;;;;4976449;28;20050;-72
2023/12/09 10:37:28;;;;;;;8.70;3.97;;;;;;;;;;5010867;28;20119;-71
2023/12/09 10:39:56;;;;;;;8.75;2.30;;;;;;;;;;4991117;28;20149;-73
2023/12/09 10:42:24;;;;;;;5.22;3.22;;;;;;;;;;5011485;28;20038;-73
2023/12/09 10:44:52;;;;;;;2.03;1.42;;;;;;;;;;5010411;28;20099;-73
2023/12/09 10:47:20;;;;;;;1.95;1.35;;;;;;;;;;5009956;28;20049;-73
2023/12/09 10:49:48;;;;;;;2.40;2.10;;;;;;;;;;5010600;28;20050;-73
2023/12/09 10:52:15;;;;;;;1.48;1.15;;;;;;;;;;5010168;28;20054;-73
2023/12/09 10:54:43;;;;;;;2.30;1.98;;;;;;;;;;5013742;28;20054;-72
2023/12/09 10:57:11;;;;;;;5.68;4.18;;;;;;;;;;4998534;28;20045;-72
2023/12/09 10:59:39;;;;;;;0.85;0.85;;;;;;;;;;4990876;28;20049;-71
2023/12/09 11:02:08;;;;;;;7.55;5.28;;;;;;;;;;5010062;28;20058;-72
2023/12/09 11:04:36;;;;;;;2.30;1.98;;;;;;;;;;5006220;28;20440;-72
2023/12/09 11:07:08;;;;;;;0.57;0.57;;;;;;;;;;5007268;28;20157;-72
2023/12/09 11:09:35;;;;;;;5.55;3.28;;;;;;;;;;4989786;28;20451;-72
2023/12/09 11:12:03;;;;;;;2.38;1.25;;;;;;;;;;5009280;28;20052;-72
2023/12/09 11:14:31;;;;;;;5.55;2.35;;;;;;;;;;5010059;28;20054;-72
2023/12/09 11:17:01;;;;;;;13.85;8.77;;;;;;;;;;5006066;28;20050;-72
2023/12/09 11:19:29;;;;;;;2.95;2.70;;;;;;;;;;5005432;28;20297;-72
2023/12/09 11:21:57;;;;;;;2.75;1.77;;;;;;;;;;5010098;28;20049;-73
2023/12/09 11:24:29;;;;;;;4.68;3.88;;;;;;;;;;5009345;28;20174;-72
2023/12/09 11:26:56;;;;;;;3.90;3.45;;;;;;;;;;5009432;28;20049;-73
2023/12/09 11:29:25;;;;;;;0.82;0.77;;;;;;;;;;5008955;28;20050;-73
2023/12/09 11:31:53;;;;;;;1.60;1.50;;;;;;;;;;5082815;23;20045;-86
2023/12/09 11:34:22;;;;;;;0.40;0.40;;;;;;;;;;4982281;28;20039;-86
2023/12/09 11:36:52;;;;;;;0.35;0.35;;;;;;;;;;4948886;28;20042;-86
2023/12/09 11:39:20;;;;;;;1.38;1.27;;;;;;;;;;4952785;28;20050;-87
2023/12/09 11:41:49;;;;;;;2.45;2.25;;;;;;;;;;4969911;28;20054;-86
2023/12/09 11:44:16;;;;;;;8.45;5.88;;;;;;;;;;4966364;28;20101;-87
2023/12/09 11:46:46;;;;;;;0.10;0.10;;;;;;;;;;4967221;28;20094;-86
2023/12/09 11:49:14;;;;;;;0.80;0.80;;;;;;;;;;4966754;28;20487;-86
2023/12/09 11:51:41;;;;;;;8.77;6.05;;;;;;;;;;4979864;28;20065;-85
2023/12/09 11:54:10;;;;;;;2.65;1.15;;;;;;;;;;4953983;28;20061;-84
2023/12/09 11:56:39;;;;;;;8.95;1.65;;;;;;;;;;4970209;28;20078;-87
2023/12/09 11:59:07;;;;;;;2.33;2.17;;;;;;;;;;4983410;28;20082;-85
2023/12/09 12:01:38;;;;;;;1.50;1.40;;;;;;;;;;4968324;28;20088;-85
2023/12/09 12:04:06;;;;;;;1.23;1.20;;;;;;;;;;4951679;28;20161;-86
2023/12/09 12:06:34;;;;;;;0.10;0.10;;;;;;;;;;4950421;28;20051;-86
2023/12/09 12:09:05;;;;;;;3.00;2.22;;;;;;;;;;4974273;28;20039;-85
2023/12/09 12:11:33;;;;;;;19.80;8.10;;;;;;;;;;4967874;28;20492;-85
2023/12/09 12:14:01;;;;;;;4.70;4.18;;;;;;;;;;4957262;28;20480;-84
2023/12/09 12:16:29;;;;;;;0.20;0.20;;;;;;;;;;4940190;28;20054;-84
2023/12/09 12:18:56;;;;;;;0.52;0.52;;;;;;;;;;4964912;28;20065;-85
2023/12/09 12:21:24;;;;;;;2.17;2.00;;;;;;;;;;4959955;28;20047;-85
2023/12/09 12:23:52;;;;;;;2.17;2.08;;;;;;;;;;4963544;28;20058;-85
2023/12/09 12:26:21;;;;;;;4.05;3.70;;;;;;;;;;4962609;28;20054;-86
2023/12/09 12:28:51;;;;;;;3.13;2.88;;;;;;;;;;4964959;28;20047;-86
2023/12/09 12:31:20;;;;;;;5.95;5.05;;;;;;;;;;4944416;28;20423;-85
2023/12/09 12:33:48;;;;;;;1.00;1.00;;;;;;;;;;4962812;28;20473;-86
2023/12/09 12:36:17;;;;;;;2.83;2.63;;;;;;;;;;4957653;28;20042;-85
2023/12/09 12:38:46;;;;;;;2.67;2.47;;;;;;;;;;4935334;28;20568;-86
2023/12/09 12:41:14;;;;;;;1.65;1.55;;;;;;;;;;4958134;28;20051;-87
2023/12/09 12:43:41;;;;;;;1.70;1.55;;;;;;;;;;4940295;28;20574;-86
2023/12/09 12:46:12;;;;;;;2.15;1.83;;;;;;;;;;4931075;28;20051;-86
2023/12/09 12:48:40;;;;;;;3.28;2.03;;;;;;;;;;4942257;28;20517;-86
2023/12/09 12:51:08;;;;;;;5.97;4.00;;;;;;;;;;4940068;28;20093;-86
2023/12/09 12:53:36;;;;;;;9.68;6.18;;;;;;;;;;4946062;28;20043;-86
2023/12/09 12:56:04;;;;;;;15.00;9.52;;;;;;;;;;4960243;28;20043;-86
2023/12/09 12:58:32;;;;;;;25.77;15.75;;;;;;;;;;4947246;28;20405;-85
2023/12/09 13:00:59;;;;;;;26.90;15.10;;;;;;;;;;4956957;28;20519;-86
2023/12/09 13:03:28;;;;;;;11.77;5.60;;;;;;;;;;4940522;28;20051;-86
2023/12/09 13:05:57;;;;;;;5.03;4.57;;;;;;;;;;4944775;28;20074;-85
2023/12/09 13:08:26;;;;;;;8.85;6.10;;;;;;;;;;4944391;28;20145;-85
2023/12/09 13:10:54;;;;;;;16.63;8.60;;;;;;;;;;4937442;28;20050;-85
2023/12/09 13:13:21;;;;;;;13.90;8.73;;;;;;;;;;4934446;28;20039;-86
2023/12/09 13:15:49;;;;;;;4.55;4.13;;;;;;;;;;4950389;28;20051;-85
2023/12/09 13:18:17;;;;;;;7.38;5.65;;;;;;;;;;4953197;28;20049;-85
2023/12/09 13:20:49;;;;;;;5.03;0.95;;;;;;;;;;4942273;28;20055;-85
2023/12/09 13:23:22;;;;;;;1.33;1.10;;;;;;;;;;4919324;28;20098;-85
2023/12/09 13:25:50;;;;;;;2.85;2.15;;;;;;;;;;4951768;28;20047;-85
2023/12/09 13:28:18;;;;;;;10.07;6.00;;;;;;;;;;4940902;28;20050;-85
2023/12/09 13:30:45;;;;;;;6.35;3.15;;;;;;;;;;4951012;28;20043;-85
2023/12/09 13:33:16;;;;;;;4.53;2.65;;;;;;;;;;4936521;28;20062;-85
2023/12/09 13:35:44;;;;;;;0.52;0.52;;;;;;;;;;4949591;28;20073;-85
2023/12/09 13:38:11;;;;;;;6.88;4.97;;;;;;;;;;4950805;28;20129;-85
2023/12/09 13:40:41;;;;;;;5.88;3.10;;;;;;;;;;4938061;28;20520;-86
2023/12/09 13:43:08;;;;;;;6.00;4.50;;;;;;;;;;4927606;28;20047;-85
2023/12/09 13:45:36;;;;;;;3.40;3.20;;;;;;;;;;4958325;28;20070;-85
2023/12/09 13:48:04;;;;;;;2.45;2.15;;;;;;;;;;4941012;28;20073;-85
2023/12/09 13:50:32;;;;;;;1.27;1.17;;;;;;;;;;4967812;28;20085;-84
2023/12/09 13:53:01;;;;;;;4.00;3.63;;;;;;;;;;4954056;28;20082;-85
2023/12/09 13:55:28;;;;;;;1.92;0.80;;;;;;;;;;4943575;28;20043;-85
2023/12/09 13:57:56;;;;;;;2.28;2.13;;;;;;;;;;4940662;28;20058;-85
2023/12/09 14:00:24;;;;;;;1.05;1.05;;;;;;;;;;4962250;28;20557;-85
2023/12/09 14:02:53;;;;;;;4.78;3.58;;;;;;;;;;4945384;28;20057;-86
2023/12/09 14:05:21;;;;;;;4.35;3.30;;;;;;;;;;4936175;28;20049;-85
2023/12/09 14:07:48;;;;;;;6.18;3.65;;;;;;;;;;4950072;28;20532;-86
2023/12/09 14:10:16;;;;;;;4.05;1.50;;;;;;;;;;4940046;28;20047;-85
2023/12/09 14:12:43;;;;;;;1.33;1.27;;;;;;;;;;4956918;28;20504;-85
2023/12/09 14:15:12;;;;;;;2.63;2.47;;;;;;;;;;4962734;28;20512;-85
2023/12/09 14:17:42;;;;;;;2.33;2.13;;;;;;;;;;4952883;28;20536;-85
2023/12/09 14:20:14;;;;;;;4.75;2.80;;;;;;;;;;4934166;28;20051;-85
2023/12/09 14:22:45;;;;;;;1.17;0.73;;;;;;;;;;4938786;28;20116;-85
2023/12/09 14:25:13;;;;;;;1.20;1.17;;;;;;;;;;4936802;28;20078;-85
2023/12/09 14:27:40;;;;;;;0.68;0.68;;;;;;;;;;4950251;28;20516;-85
2023/12/09 14:30:11;;;;;;;1.67;1.58;;;;;;;;;;4935051;28;20564;-86
2023/12/09 14:32:43;;;;;;;3.17;3.05;;;;;;;;;;4940277;28;20053;-86
2023/12/09 14:35:12;;;;;;;1.70;1.60;;;;;;;;;;4952852;28;20353;-85
2023/12/09 14:37:40;;;;;;;5.00;4.60;;;;;;;;;;4953548;28;20047;-84
2023/12/09 14:40:08;;;;;;;0.10;0.10;;;;;;;;;;4937133;28;20058;-87
2023/12/09 14:42:36;;;;;;;0.40;0.40;;;;;;;;;;4949665;28;20050;-85
2023/12/09 14:45:04;;;;;;;1.33;1.33;;;;;;;;;;4939573;28;20678;-84
2023/12/09 14:47:31;;;;;;;3.60;2.65;;;;;;;;;;4950271;28;20540;-85
2023/12/09 14:49:59;;;;;;;4.15;3.53;;;;;;;;;;4934581;28;20079;-85
2023/12/09 14:52:26;;;;;;;3.53;2.67;;;;;;;;;;4936474;28;20057;-85
2023/12/09 14:54:55;;;;;;;2.22;2.13;;;;;;;;;;4938931;28;20054;-85